Main page
METAR-TAF:

METAR-TAF

Airports :

Gillespie County Airport

Fredericksburg, Texas, United States

latitude: 30-14-37N, longitude: 098-54-34W, elevation: 1696 ft

Current weather observation

The report was made 40 minutes ago, at 16:15 UTC
Wind 8 mph from the South/Southeast
Temperature 84°F
Humidity 58%
Pressure 29.99 in. Hg
Visibility: 10 miles
Scattered clouds at a height of 3000 ft
Scattered clouds at a height of 3700 ft

METAR: KT82 151615Z AUTO 16007KT 10SM SCT030 SCT037 29/20 A2999 RMK AO2 T02860195

Time: 11:55 (16:55 UTC)


TAF: missing

Weather observations and forecasts of more than 4000 airports (METAR and TAF reports).

The available stations are represented by yellow and red dots on the map.

Hover mouse over dot to see the name of the station.

Then click to see weather observations and forecasts.

To change the map : click on the green buttons with a black cross to zoom in, on the green button with a dash to zoom out, or on the green arrows for adjacent maps.


METAR-TAF: